McAlister, NM

4:08 PM MDT on May 24, 2015 (GMT -0600)
Clovis Municipal | | Change Station
CLOSE
Current Station
Airport
Location: Clovis,
Elevation: 4216 ft
Nearby Weather Stations

Elev 4216 ft 34.43 °N, 103.08 °W | Updated 13 minutes ago

Clear
Clear
75 °F
Feels Like 75 °F
N
16
Wind Variable Wind from SW
Gusts 26 mph

Today
High -- | Low -- °F
--% Chance of Precip.
Yesterday
High -- | Low -- °F
Precip. -- in
5:45 AM 7:57 PM
Waxing Crescent, 42% visible
Pressure 29.82 in
Visibility 10.0 miles
Clouds Few 9500 ft
Dew Point 39 °F
Humidity 27%
Rainfall 0.00 in
Snow Depth Not available.
UV 7 out of 12
Pollen 5.50 out of 12
Air Quality Not available.
Flu Activity Local Activity
METAR KCVN 242155Z AUTO 22014G23KT 10SM FEW095 24/04 A2982 RMK AO1

More Conditions Fewer Conditions

Pressure 29.82 in
Visibility 10.0 miles
Clouds Few 9500 ft
Dew Point 39 °F
Humidity 27%
Rainfall 0.00 in
Snow Depth Not available.
UV 7 out of 12
Pollen 5.50 out of 12
Air Quality Not available.
Flu Activity Local Activity
METAR KCVN 242155Z AUTO 22014G23KT 10SM FEW095 24/04 A2982 RMK AO1

More Conditions Fewer Conditions

10-Day Weather Forecast

Almanac

Astronomy

May. 24, 2015 Rise Set
Actual Time
Civil Twilight
Nautical Twilight
Astronomical Twilight
Moon
Length of Visible Light
Length of Day
Tomorrow will be .
, % of the Moon is Illuminated

Today's Extremes

State Highs State Lows

Community

WunderPhotos

Upload Photos

1,823,876 photos uploaded!

WunderBlogs® & News

Nearby

Air Quality

  Air Quality AQ Index Pollutant
Not available.

Snow Depth

Station Depth Elevation

Earthquake Activity

City Distance Mag. Time & Date
Minimum magnitude displayed is 2.5.

Coastal Water Temperatures

Place Temperature

Stations

Nearby Weather Stations

Station Location Temp. Windchill Dew Point Humidity Wind Precip. Elev Updated Type